createdAt,value
2023-03-11T00:00:13.546Z,100.00
2023-03-11T00:01:15.500Z,100.00
2023-03-11T00:02:18.014Z,100.00
2023-03-11T00:03:23.108Z,100.00
2023-03-11T00:04:25.954Z,100.00
2023-03-11T00:05:29.736Z,100.00
2023-03-11T00:06:32.457Z,100.00
2023-03-11T00:07:34.269Z,100.00
2023-03-11T00:08:37.224Z,100.00
2023-03-11T00:09:39.111Z,100.00
2023-03-11T00:10:43.819Z,100.00
2023-03-11T00:11:46.756Z,100.00
2023-03-11T00:12:49.201Z,100.00
2023-03-11T00:13:51.715Z,100.00
2023-03-11T00:14:53.274Z,100.00
2023-03-11T00:15:57.027Z,100.00
2023-03-11T00:16:58.562Z,100.00
2023-03-11T00:18:01.449Z,100.00
2023-03-11T00:19:03.027Z,100.00
2023-03-11T00:20:07.207Z,100.00
2023-03-11T00:21:16.039Z,100.00
2023-03-11T00:22:17.685Z,100.00
2023-03-11T00:23:20.221Z,100.00
2023-03-11T00:24:21.940Z,100.00
2023-03-11T00:25:27.092Z,100.00
2023-03-11T00:26:29.569Z,100.00
2023-03-11T00:27:32.493Z,100.00
2023-03-11T00:28:35.277Z,100.00
2023-03-11T00:29:36.816Z,100.00
2023-03-11T00:30:40.376Z,100.00
2023-03-11T00:31:42.018Z,100.00
2023-03-11T00:32:44.832Z,100.00
2023-03-11T00:33:47.439Z,100.00
2023-03-11T00:34:49.268Z,100.00
2023-03-11T00:35:52.447Z,100.00
2023-03-11T00:36:54.101Z,100.00
2023-03-11T00:37:58.835Z,100.00
2023-03-11T00:39:02.121Z,100.00
2023-03-11T00:40:08.492Z,100.00
2023-03-11T00:41:10.989Z,100.00
2023-03-11T00:42:12.736Z,100.00
2023-03-11T00:43:17.570Z,100.00
2023-03-11T00:44:19.384Z,100.00
2023-03-11T00:45:22.138Z,100.00
2023-03-11T00:46:23.689Z,100.00
2023-03-11T00:47:26.283Z,100.00
2023-03-11T00:48:27.922Z,100.00
2023-03-11T00:49:30.563Z,100.00
2023-03-11T00:50:35.166Z,100.00
2023-03-11T00:51:37.940Z,100.00
2023-03-11T00:52:39.548Z,100.00
2023-03-11T00:53:43.012Z,100.00
2023-03-11T00:54:46.143Z,100.00
2023-03-11T00:55:48.769Z,100.00
2023-03-11T00:56:50.328Z,100.00
2023-03-11T00:57:54.074Z,100.00
2023-03-11T00:58:57.378Z,100.00
2023-03-11T01:00:00.681Z,100.00
2023-03-11T01:01:08.979Z,100.00
2023-03-11T01:02:14.332Z,100.00
2023-03-11T01:03:16.820Z,100.00
2023-03-11T01:04:18.473Z,100.00
2023-03-11T01:05:22.580Z,100.00
2023-03-11T01:06:26.131Z,100.00
2023-03-11T01:07:30.510Z,100.00
2023-03-11T01:08:32.594Z,100.00
2023-03-11T01:09:35.386Z,100.00
2023-03-11T01:10:37.499Z,100.00
2023-03-11T01:11:40.139Z,100.00
2023-03-11T01:12:43.220Z,100.00
2023-03-11T01:13:45.954Z,100.00
2023-03-11T01:14:49.047Z,100.00
2023-03-11T01:15:51.587Z,100.00
2023-03-11T01:16:53.875Z,100.00
2023-03-11T01:17:56.852Z,100.00
2023-03-11T01:18:58.463Z,100.00
2023-03-11T01:20:01.072Z,100.00
2023-03-11T01:21:02.885Z,100.00
2023-03-11T01:22:05.561Z,100.00
2023-03-11T01:23:07.932Z,100.00
2023-03-11T01:24:10.631Z,100.00
2023-03-11T01:25:13.983Z,100.00
2023-03-11T01:26:16.700Z,100.00
2023-03-11T01:27:18.218Z,100.00
2023-03-11T01:28:20.698Z,100.00
2023-03-11T01:29:22.521Z,100.00
2023-03-11T01:30:27.763Z,100.00
2023-03-11T01:31:29.362Z,100.00
2023-03-11T01:32:31.945Z,100.00
2023-03-11T01:33:33.524Z,100.00
2023-03-11T01:34:36.228Z,100.00
2023-03-11T01:35:40.126Z,100.00
2023-03-11T01:36:43.236Z,100.00
2023-03-11T01:37:44.983Z,100.00
2023-03-11T01:38:47.960Z,100.00
2023-03-11T01:39:49.572Z,100.00
2023-03-11T01:40:53.017Z,100.00
2023-03-11T01:41:56.081Z,100.00
2023-03-11T01:42:59.443Z,100.00
2023-03-11T01:44:00.993Z,100.00
2023-03-11T01:45:04.093Z,100.00
2023-03-11T01:46:24.591Z,100.00
2023-03-11T01:47:36.978Z,100.00
2023-03-11T01:48:39.122Z,100.00
2023-03-11T01:49:42.662Z,100.00
2023-03-11T01:50:49.594Z,100.00
2023-03-11T01:51:55.749Z,100.00
2023-03-11T01:52:57.452Z,100.00
2023-03-11T01:54:03.508Z,100.00
2023-03-11T01:55:06.739Z,100.00
2023-03-11T01:56:09.987Z,100.00
2023-03-11T01:57:13.729Z,100.00
2023-03-11T01:58:21.677Z,100.00
2023-03-11T01:59:27.227Z,100.00
2023-03-11T02:00:29.798Z,100.00
2023-03-11T02:01:33.027Z,100.00
2023-03-11T02:02:41.680Z,100.00
2023-03-11T02:03:43.499Z,100.00
2023-03-11T02:04:46.086Z,100.00
2023-03-11T02:05:49.350Z,100.00
2023-03-11T02:06:54.074Z,100.00
2023-03-11T02:07:55.991Z,100.00
2023-03-11T02:08:58.936Z,100.00
2023-03-11T02:10:00.643Z,100.00
2023-03-11T02:11:06.186Z,100.00
2023-03-11T02:12:10.904Z,100.00
2023-03-11T02:13:13.521Z,100.00
2023-03-11T02:14:15.345Z,100.00
2023-03-11T02:15:18.097Z,100.00
2023-03-11T02:16:19.813Z,100.00
2023-03-11T02:17:23.876Z,100.00
2023-03-11T02:18:25.613Z,100.00
2023-03-11T02:19:40.027Z,100.00
2023-03-11T02:20:47.333Z,100.00
2023-03-11T02:21:50.840Z,100.00
2023-03-11T02:22:57.099Z,100.00
2023-03-11T02:24:08.859Z,100.00
2023-03-11T02:25:18.565Z,100.00
2023-03-11T02:26:25.988Z,100.00
2023-03-11T02:27:32.938Z,100.00
2023-03-11T02:28:37.229Z,100.00
2023-03-11T02:29:41.515Z,100.00
2023-03-11T02:30:45.660Z,100.00
2023-03-11T02:31:48.564Z,100.00
2023-03-11T02:32:51.645Z,100.00
2023-03-11T02:33:54.859Z,100.00
2023-03-11T02:34:57.366Z,100.00
2023-03-11T02:35:59.453Z,100.00
2023-03-11T02:37:05.679Z,100.00
2023-03-11T02:38:07.480Z,100.00
2023-03-11T02:39:11.191Z,100.00
2023-03-11T02:40:57.225Z,100.00
2023-03-11T02:41:59.746Z,100.00
2023-03-11T02:43:06.671Z,100.00
2023-03-11T02:44:11.703Z,100.00
2023-03-11T02:45:16.569Z,100.00
2023-03-11T02:46:20.390Z,100.00
2023-03-11T02:47:22.221Z,100.00
2023-03-11T02:48:24.992Z,100.00
2023-03-11T02:49:26.975Z,100.00
2023-03-11T02:50:30.360Z,100.00
2023-03-11T02:51:32.857Z,100.00
2023-03-11T02:52:36.317Z,100.00
2023-03-11T02:53:45.856Z,100.00
2023-03-11T02:54:47.358Z,100.00
2023-03-11T02:55:49.932Z,100.00
2023-03-11T02:56:51.470Z,100.00
2023-03-11T02:57:53.997Z,100.00
2023-03-11T02:58:57.269Z,100.00
2023-03-11T03:00:02.241Z,100.00
2023-03-11T03:01:04.501Z,100.00
2023-03-11T03:02:07.067Z,100.00
2023-03-11T03:03:10.624Z,100.00
2023-03-11T03:04:13.145Z,100.00
2023-03-11T03:05:14.684Z,100.00
2023-03-11T03:06:17.428Z,100.00
2023-03-11T03:07:19.256Z,100.00
2023-03-11T03:08:21.706Z,100.00
2023-03-11T03:09:23.216Z,100.00
2023-03-11T03:10:25.960Z,100.00
2023-03-11T03:11:27.577Z,100.00
2023-03-11T03:12:30.096Z,100.00
2023-03-11T03:13:32.933Z,100.00
2023-03-11T03:14:35.894Z,100.00
2023-03-11T03:15:38.448Z,100.00
2023-03-11T03:16:40.065Z,100.00
2023-03-11T03:17:42.823Z,100.00
2023-03-11T03:18:44.444Z,100.00
2023-03-11T03:19:47.143Z,100.00
2023-03-11T03:20:48.666Z,100.00
2023-03-11T03:21:51.156Z,100.00
2023-03-11T03:22:52.753Z,100.00
2023-03-11T03:23:55.242Z,100.00
2023-03-11T03:24:56.778Z,100.00
2023-03-11T03:25:59.229Z,100.00
2023-03-11T03:27:00.838Z,100.00
2023-03-11T03:28:03.377Z,100.00
2023-03-11T03:29:04.916Z,100.00
2023-03-11T03:30:10.816Z,100.00
2023-03-11T03:31:12.454Z,100.00
2023-03-11T03:32:14.959Z,100.00
2023-03-11T03:33:16.732Z,100.00
2023-03-11T03:34:19.269Z,100.00
2023-03-11T03:35:20.916Z,100.00
2023-03-11T03:36:23.814Z,100.00
2023-03-11T03:37:27.335Z,100.00
2023-03-11T03:38:29.862Z,100.00
2023-03-11T03:39:33.033Z,100.00
2023-03-11T03:40:35.737Z,100.00
2023-03-11T03:41:37.322Z,100.00
2023-03-11T03:42:39.884Z,100.00
2023-03-11T03:43:41.525Z,100.00
2023-03-11T03:44:44.036Z,100.00
2023-03-11T03:45:55.457Z,100.00
2023-03-11T03:46:58.085Z,100.00
2023-03-11T03:47:59.894Z,100.00
2023-03-11T03:49:02.376Z,100.00
2023-03-11T03:50:05.125Z,100.00
2023-03-11T03:51:10.245Z,100.00
2023-03-11T03:52:12.064Z,100.00
2023-03-11T03:53:14.508Z,100.00
2023-03-11T03:54:16.261Z,100.00
2023-03-11T03:55:18.852Z,100.00
2023-03-11T03:56:20.414Z,100.00
2023-03-11T03:57:22.905Z,100.00
2023-03-11T03:58:24.403Z,100.00
2023-03-11T03:59:26.858Z,100.00
2023-03-11T04:00:28.541Z,100.00
2023-03-11T04:01:32.382Z,100.00
2023-03-11T04:02:33.941Z,100.00
2023-03-11T04:03:38.186Z,100.00
2023-03-11T04:04:39.883Z,100.00
2023-03-11T04:05:42.341Z,100.00
2023-03-11T04:06:43.848Z,100.00
2023-03-11T04:07:46.355Z,100.00
2023-03-11T04:08:48.086Z,100.00
2023-03-11T04:09:50.528Z,100.00
2023-03-11T04:10:58.224Z,100.00
2023-03-11T04:12:01.154Z,100.00
2023-03-11T04:13:03.053Z,100.00
2023-03-11T04:14:06.605Z,100.00
2023-03-11T04:15:09.772Z,100.00
2023-03-11T04:16:17.655Z,100.00
2023-03-11T04:17:22.048Z,100.00
2023-03-11T04:18:23.687Z,100.00
2023-03-11T04:19:26.260Z,100.00
2023-03-11T04:20:27.755Z,99.87
2023-03-11T04:21:30.299Z,98.77
2023-03-11T04:22:31.822Z,98.70
2023-03-11T04:23:34.940Z,98.48
2023-03-11T04:24:36.579Z,98.47
2023-03-11T04:25:39.172Z,98.43
2023-03-11T04:26:40.712Z,97.67
2023-03-11T04:27:46.227Z,97.48
2023-03-11T04:28:47.929Z,97.12
2023-03-11T04:29:50.402Z,96.27
2023-03-11T04:30:52.394Z,95.99
2023-03-11T04:31:55.035Z,96.93
2023-03-11T04:32:57.926Z,96.19
2023-03-11T04:34:00.479Z,96.02
2023-03-11T04:35:02.213Z,96.43
2023-03-11T04:36:06.976Z,96.84
2023-03-11T04:37:08.799Z,96.80
2023-03-11T04:38:11.324Z,96.50
2023-03-11T04:39:12.918Z,96.24
2023-03-11T04:40:16.025Z,97.08
2023-03-11T04:41:17.644Z,96.57
2023-03-11T04:42:20.154Z,96.46
2023-03-11T04:43:21.662Z,96.35
2023-03-11T04:44:24.308Z,96.52
2023-03-11T04:45:25.841Z,96.56
2023-03-11T04:46:28.826Z,95.89
2023-03-11T04:47:30.647Z,96.36
2023-03-11T04:48:34.499Z,96.68
2023-03-11T04:49:36.226Z,97.08
2023-03-11T04:50:38.729Z,96.51
2023-03-11T04:51:40.270Z,96.54
2023-03-11T04:52:42.743Z,96.65
2023-03-11T04:53:44.430Z,97.34
2023-03-11T04:54:46.889Z,96.51
2023-03-11T04:55:48.482Z,96.59
2023-03-11T04:56:51.006Z,97.02
2023-03-11T04:57:52.551Z,96.69
2023-03-11T04:58:55.021Z,96.74
2023-03-11T04:59:56.567Z,96.91
2023-03-11T05:00:59.051Z,97.03
2023-03-11T05:02:00.618Z,96.06
2023-03-11T05:03:03.187Z,95.98
2023-03-11T05:04:06.246Z,96.05
2023-03-11T05:05:10.706Z,95.54
2023-03-11T05:06:12.318Z,96.05
2023-03-11T05:07:15.249Z,95.69
2023-03-11T05:08:16.808Z,95.56
2023-03-11T05:09:19.741Z,95.96
2023-03-11T05:10:22.600Z,95.41
2023-03-11T05:11:25.284Z,95.31
2023-03-11T05:12:26.992Z,94.94
2023-03-11T05:13:29.626Z,95.18
2023-03-11T05:14:31.158Z,95.47
2023-03-11T05:15:33.681Z,95.10
2023-03-11T05:16:35.195Z,93.90
2023-03-11T05:17:37.671Z,94.11
2023-03-11T05:18:39.183Z,93.98
2023-03-11T05:19:43.091Z,93.59
2023-03-11T05:20:45.052Z,94.48
2023-03-11T05:21:47.831Z,94.16
2023-03-11T05:22:49.439Z,93.37
2023-03-11T05:23:52.085Z,92.64
2023-03-11T05:24:53.855Z,93.32
2023-03-11T05:25:56.339Z,93.21
2023-03-11T05:27:02.191Z,93.34
2023-03-11T05:28:04.946Z,92.71
2023-03-11T05:29:06.711Z,92.04
2023-03-11T05:30:10.483Z,92.39
2023-03-11T05:31:12.409Z,92.33
2023-03-11T05:32:15.345Z,92.28
2023-03-11T05:33:35.335Z,92.63
2023-03-11T05:34:37.883Z,91.95
2023-03-11T05:35:42.897Z,92.79
2023-03-11T05:36:45.025Z,92.55
2023-03-11T05:37:49.781Z,93.41
2023-03-11T05:38:53.309Z,93.71
2023-03-11T05:39:55.838Z,92.61
2023-03-11T05:40:57.380Z,92.95
2023-03-11T05:41:59.866Z,92.52
2023-03-11T05:43:01.467Z,91.75
2023-03-11T05:44:04.195Z,91.91
2023-03-11T05:45:06.511Z,91.95
2023-03-11T05:46:09.800Z,91.00
2023-03-11T05:47:11.568Z,90.90
2023-03-11T05:48:14.050Z,90.27
2023-03-11T05:49:15.554Z,91.16
2023-03-11T05:50:18.262Z,90.73
2023-03-11T05:51:21.308Z,90.90
2023-03-11T05:52:23.881Z,91.92
2023-03-11T05:53:25.446Z,92.65
2023-03-11T05:54:28.144Z,91.60
2023-03-11T05:55:29.787Z,91.56
2023-03-11T05:56:35.782Z,91.78
2023-03-11T05:57:37.312Z,91.37
2023-03-11T05:58:39.896Z,92.14
2023-03-11T05:59:41.603Z,91.19
2023-03-11T06:00:44.350Z,91.59
2023-03-11T06:01:45.952Z,92.08
2023-03-11T06:02:48.482Z,91.38
2023-03-11T06:03:50.170Z,91.03
2023-03-11T06:04:53.280Z,91.40
2023-03-11T06:05:55.885Z,89.92
2023-03-11T06:06:59.713Z,90.27
2023-03-11T06:08:02.288Z,90.47
2023-03-11T06:09:04.214Z,90.89
2023-03-11T06:10:07.992Z,90.25
2023-03-11T06:11:11.000Z,90.75
2023-03-11T06:12:13.548Z,89.61
2023-03-11T06:13:15.253Z,89.23
2023-03-11T06:14:17.768Z,88.83
2023-03-11T06:15:19.282Z,88.13
2023-03-11T06:16:22.164Z,88.92
2023-03-11T06:17:24.079Z,89.24
2023-03-11T06:18:27.430Z,89.80
2023-03-11T06:19:28.979Z,88.52
2023-03-11T06:20:32.330Z,89.20
2023-03-11T06:21:33.884Z,89.24
2023-03-11T06:22:40.030Z,89.29
2023-03-11T06:23:41.945Z,89.56
2023-03-11T06:24:44.463Z,90.44
2023-03-11T06:25:55.693Z,89.83
2023-03-11T06:26:58.258Z,89.21
2023-03-11T06:27:59.837Z,90.37
2023-03-11T06:29:02.356Z,89.36
2023-03-11T06:30:07.753Z,89.16
2023-03-11T06:31:11.882Z,89.35
2023-03-11T06:32:13.564Z,88.21
2023-03-11T06:33:16.140Z,89.00
2023-03-11T06:34:17.766Z,89.23
2023-03-11T06:35:20.284Z,88.36
2023-03-11T06:36:22.610Z,88.46
2023-03-11T06:37:28.317Z,88.43
2023-03-11T06:38:31.536Z,88.77
2023-03-11T06:39:34.085Z,88.53
2023-03-11T06:40:37.014Z,88.91
2023-03-11T06:41:39.704Z,89.84
2023-03-11T06:42:41.276Z,89.88
2023-03-11T06:43:43.770Z,89.22
2023-03-11T06:44:47.218Z,88.33
2023-03-11T06:45:49.810Z,88.78
2023-03-11T06:46:51.540Z,89.17
2023-03-11T06:47:54.228Z,89.09
2023-03-11T06:48:55.803Z,88.56
2023-03-11T06:49:58.378Z,88.06
2023-03-11T06:51:01.214Z,87.13
2023-03-11T06:52:03.790Z,87.00
2023-03-11T06:53:07.608Z,86.79
2023-03-11T06:54:12.181Z,87.04
2023-03-11T06:55:13.738Z,87.95
2023-03-11T06:56:16.170Z,88.08
2023-03-11T06:57:17.687Z,88.66
2023-03-11T06:58:41.731Z,88.25
2023-03-11T06:59:43.516Z,87.80
2023-03-11T07:00:46.000Z,87.62
2023-03-11T07:01:48.801Z,88.01
2023-03-11T07:02:50.350Z,88.40
2023-03-11T07:03:53.367Z,89.03
2023-03-11T07:04:55.008Z,88.55
2023-03-11T07:05:57.937Z,88.22
2023-03-11T07:07:01.636Z,88.72
2023-03-11T07:08:03.230Z,86.88
2023-03-11T07:09:05.951Z,87.03
2023-03-11T07:10:10.411Z,87.34
2023-03-11T07:11:15.748Z,86.45
2023-03-11T07:12:18.436Z,87.11
2023-03-11T07:13:19.997Z,86.26
2023-03-11T07:14:23.205Z,87.92
2023-03-11T07:15:24.709Z,87.31
2023-03-11T07:16:28.970Z,87.31
2023-03-11T07:17:30.780Z,86.94
2023-03-11T07:18:33.748Z,87.94
2023-03-11T07:19:39.725Z,88.11
2023-03-11T07:20:42.375Z,87.58
2023-03-11T07:21:44.947Z,87.66
2023-03-11T07:22:47.677Z,87.45
2023-03-11T07:23:53.853Z,87.71
2023-03-11T07:24:55.432Z,87.20
2023-03-11T07:25:59.837Z,87.80
2023-03-11T07:27:01.619Z,87.88
2023-03-11T07:28:04.541Z,87.78
2023-03-11T07:29:07.173Z,87.05
2023-03-11T07:30:11.391Z,87.55
2023-03-11T07:31:16.905Z,87.31
2023-03-11T07:32:19.027Z,87.50
2023-03-11T07:33:24.058Z,87.41
2023-03-11T07:34:25.665Z,87.07
2023-03-11T07:35:28.130Z,87.39
2023-03-11T07:36:29.816Z,88.17
2023-03-11T07:37:32.351Z,87.88
2023-03-11T07:38:33.919Z,87.15
2023-03-11T07:39:36.432Z,86.76
2023-03-11T07:40:38.203Z,87.51
2023-03-11T07:41:42.659Z,88.19
2023-03-11T07:42:44.179Z,88.22
2023-03-11T07:43:46.921Z,89.22
2023-03-11T07:44:51.631Z,89.13
2023-03-11T07:45:54.928Z,88.59
2023-03-11T07:46:57.444Z,87.97
2023-03-11T07:47:59.214Z,87.94
2023-03-11T07:49:03.606Z,88.27
2023-03-11T07:50:06.315Z,89.54
2023-03-11T07:51:11.770Z,88.86
2023-03-11T07:52:13.283Z,88.77
2023-03-11T07:53:15.795Z,87.96
2023-03-11T07:54:18.316Z,87.84
2023-03-11T07:55:19.929Z,88.03
2023-03-11T07:56:24.653Z,88.03
2023-03-11T07:57:27.878Z,87.44
2023-03-11T07:58:30.839Z,87.66
2023-03-11T07:59:32.361Z,86.76
2023-03-11T08:00:35.175Z,87.61
2023-03-11T08:01:36.864Z,87.76
2023-03-11T08:02:40.053Z,87.75
2023-03-11T08:03:42.802Z,86.30
2023-03-11T08:04:45.592Z,87.45
2023-03-11T08:05:47.179Z,88.05
2023-03-11T08:06:49.865Z,89.14
2023-03-11T08:07:52.363Z,89.34
2023-03-11T08:08:54.141Z,88.89
2023-03-11T08:09:56.709Z,88.59
2023-03-11T08:10:58.376Z,89.00
2023-03-11T08:12:01.063Z,88.44
2023-03-11T08:13:04.245Z,86.78
2023-03-11T08:14:07.562Z,87.21
2023-03-11T08:15:10.373Z,87.02
2023-03-11T08:16:15.592Z,86.28
2023-03-11T08:17:17.160Z,86.71
2023-03-11T08:18:19.921Z,87.27
2023-03-11T08:19:21.473Z,86.29
2023-03-11T08:20:24.010Z,86.06
2023-03-11T08:21:28.966Z,85.56
2023-03-11T08:22:31.429Z,86.24
2023-03-11T08:23:33.280Z,86.00
2023-03-11T08:24:35.991Z,86.73
2023-03-11T08:25:39.045Z,86.68
2023-03-11T08:26:42.588Z,86.19
2023-03-11T08:27:44.248Z,86.29
2023-03-11T08:28:49.025Z,85.71
2023-03-11T08:29:50.567Z,85.29
2023-03-11T08:30:53.367Z,85.32
2023-03-11T08:31:54.990Z,86.12
2023-03-11T08:32:57.489Z,85.38
2023-03-11T08:34:02.573Z,85.61
2023-03-11T08:35:05.015Z,85.78
2023-03-11T08:36:08.104Z,85.86
2023-03-11T08:37:10.051Z,85.97
2023-03-11T08:38:12.598Z,84.86
2023-03-11T08:39:15.494Z,84.83
2023-03-11T08:40:18.579Z,85.25
2023-03-11T08:41:21.423Z,84.68
2023-03-11T08:42:24.131Z,84.75
2023-03-11T08:43:25.662Z,85.38
2023-03-11T08:44:29.807Z,85.15
2023-03-11T08:45:31.643Z,85.80
2023-03-11T08:46:36.471Z,85.25
2023-03-11T08:47:38.738Z,85.08
2023-03-11T08:48:41.213Z,84.77
2023-03-11T08:49:43.098Z,84.18
2023-03-11T08:50:53.762Z,84.37
2023-03-11T08:51:56.716Z,83.58
2023-03-11T08:53:00.568Z,84.57
2023-03-11T08:54:03.870Z,84.71
2023-03-11T08:55:08.337Z,84.81
2023-03-11T08:56:11.214Z,85.30
2023-03-11T08:57:13.697Z,85.32
2023-03-11T08:58:15.222Z,84.36
2023-03-11T08:59:17.784Z,84.14
2023-03-11T09:00:22.203Z,83.09
2023-03-11T09:01:25.567Z,84.35
2023-03-11T09:02:28.761Z,85.25
2023-03-11T09:03:31.770Z,84.44
2023-03-11T09:04:34.358Z,84.90
2023-03-11T09:05:37.274Z,84.77
2023-03-11T09:06:43.637Z,85.07
2023-03-11T09:07:45.523Z,84.33
2023-03-11T09:08:49.670Z,84.09
2023-03-11T09:09:52.483Z,82.92
2023-03-11T09:10:54.116Z,83.48
2023-03-11T09:11:56.543Z,83.95
2023-03-11T09:12:58.150Z,83.00
2023-03-11T09:14:00.864Z,82.89
2023-03-11T09:15:02.624Z,82.85
2023-03-11T09:16:08.520Z,82.65
2023-03-11T09:17:14.545Z,83.58
2023-03-11T09:18:17.057Z,81.00
2023-03-11T09:19:19.625Z,81.90
2023-03-11T09:20:22.154Z,82.74
2023-03-11T09:21:24.848Z,82.06
2023-03-11T09:22:27.357Z,81.78
2023-03-11T09:23:30.874Z,79.98
2023-03-11T09:24:34.259Z,81.65
2023-03-11T09:25:36.888Z,80.99
2023-03-11T09:26:38.484Z,80.58
2023-03-11T09:27:41.967Z,79.82
2023-03-11T09:28:47.182Z,79.55
2023-03-11T09:29:49.691Z,79.01
2023-03-11T09:30:51.275Z,79.17
2023-03-11T09:31:55.367Z,79.90
2023-03-11T09:32:57.158Z,79.07
2023-03-11T09:33:59.684Z,80.21
2023-03-11T09:35:01.282Z,79.88
2023-03-11T09:36:03.904Z,79.96
2023-03-11T09:37:06.594Z,79.83
2023-03-11T09:38:08.165Z,80.06
2023-03-11T09:39:11.359Z,80.23
2023-03-11T09:40:17.650Z,80.75
2023-03-11T09:41:28.317Z,80.84
2023-03-11T09:42:39.558Z,81.14
2023-03-11T09:43:51.893Z,82.09
2023-03-11T09:45:04.838Z,81.80
2023-03-11T09:46:27.326Z,81.78
2023-03-11T09:47:39.749Z,82.42
2023-03-11T09:48:47.344Z,81.99
2023-03-11T09:50:04.883Z,81.65
2023-03-11T09:51:17.459Z,81.64
2023-03-11T09:52:30.748Z,83.18
2023-03-11T09:53:40.106Z,83.61
2023-03-11T09:54:46.388Z,84.23
2023-03-11T09:55:54.649Z,83.91
2023-03-11T09:56:57.430Z,84.38
2023-03-11T09:58:05.273Z,83.92
2023-03-11T09:59:14.266Z,83.45
2023-03-11T10:00:21.318Z,83.54
2023-03-11T10:01:28.593Z,83.61
2023-03-11T10:02:34.194Z,84.42
2023-03-11T10:03:39.858Z,84.97
2023-03-11T10:04:51.503Z,84.86
2023-03-11T10:06:00.738Z,82.95
2023-03-11T10:07:12.269Z,83.27
2023-03-11T10:08:23.664Z,82.66
2023-03-11T10:09:35.170Z,81.90
2023-03-11T10:10:46.918Z,81.55
2023-03-11T10:11:59.354Z,81.07
2023-03-11T10:13:13.407Z,82.04
2023-03-11T10:14:29.022Z,82.37
2023-03-11T10:15:48.294Z,82.51
2023-03-11T10:17:01.792Z,82.47
2023-03-11T10:18:25.834Z,82.30
2023-03-11T10:19:44.308Z,81.86
2023-03-11T10:20:54.395Z,81.95
2023-03-11T10:22:03.840Z,82.83
2023-03-11T10:23:20.474Z,80.80
2023-03-11T10:24:38.293Z,81.22
2023-03-11T10:25:51.066Z,80.69
2023-03-11T10:26:56.885Z,80.14
2023-03-11T10:28:06.580Z,80.91
2023-03-11T10:29:16.725Z,80.02
2023-03-11T10:30:26.938Z,80.20
2023-03-11T10:31:34.991Z,79.93
2023-03-11T10:32:42.685Z,78.52
2023-03-11T10:33:48.973Z,78.54
2023-03-11T10:34:58.534Z,79.26
2023-03-11T10:36:06.101Z,79.03
2023-03-11T10:37:14.081Z,79.89
2023-03-11T10:38:20.563Z,80.76
2023-03-11T10:39:23.343Z,80.43
2023-03-11T10:40:31.298Z,79.77
2023-03-11T10:41:48.469Z,80.57
2023-03-11T10:42:52.944Z,80.49
2023-03-11T10:44:00.614Z,80.94
2023-03-11T10:45:02.377Z,81.68
2023-03-11T10:46:10.224Z,81.28
2023-03-11T10:47:18.181Z,80.97
2023-03-11T10:48:21.135Z,81.00
2023-03-11T10:49:23.746Z,80.81
2023-03-11T10:50:26.647Z,81.51
2023-03-11T10:51:35.375Z,81.49
2023-03-11T10:52:44.889Z,81.15
2023-03-11T10:53:49.214Z,81.51
2023-03-11T10:55:02.844Z,81.42
2023-03-11T10:56:06.097Z,80.05
2023-03-11T10:57:23.043Z,81.40
2023-03-11T10:58:29.497Z,81.78
2023-03-11T10:59:35.005Z,81.93
2023-03-11T11:00:36.553Z,81.89
2023-03-11T11:01:39.179Z,81.45
2023-03-11T11:02:49.658Z,81.60
2023-03-11T11:03:55.954Z,80.94
2023-03-11T11:05:25.053Z,79.90
2023-03-11T11:06:31.989Z,78.04
2023-03-11T11:07:35.371Z,78.37
2023-03-11T11:08:37.898Z,78.08
2023-03-11T11:09:39.407Z,78.29
2023-03-11T11:10:51.377Z,77.57
2023-03-11T11:12:05.494Z,78.18
2023-03-11T11:13:19.661Z,77.32
2023-03-11T11:14:24.035Z,76.39
2023-03-11T11:15:29.601Z,75.50
2023-03-11T11:16:35.557Z,74.95
2023-03-11T11:17:37.240Z,75.05
2023-03-11T11:18:46.632Z,75.59
2023-03-11T11:19:51.167Z,75.58
2023-03-11T11:21:03.607Z,75.88
2023-03-11T11:22:06.660Z,76.00
2023-03-11T11:23:27.508Z,77.26
2023-03-11T11:24:31.052Z,75.81
2023-03-11T11:25:35.683Z,75.41
2023-03-11T11:26:38.300Z,75.00
2023-03-11T11:27:56.062Z,74.86
2023-03-11T11:29:14.756Z,75.74
2023-03-11T11:30:19.094Z,74.63
2023-03-11T11:31:25.149Z,75.24
2023-03-11T11:32:27.731Z,74.78
2023-03-11T11:33:32.526Z,74.21
2023-03-11T11:34:34.939Z,74.61
2023-03-11T11:35:51.658Z,72.59
2023-03-11T11:36:54.446Z,72.42
2023-03-11T11:38:04.260Z,72.63
2023-03-11T11:39:16.536Z,74.63
2023-03-11T11:40:26.621Z,74.07
2023-03-11T11:41:30.596Z,74.29
2023-03-11T11:42:33.589Z,73.43
2023-03-11T11:43:48.076Z,73.07
2023-03-11T11:44:53.156Z,73.65
2023-03-11T11:45:58.737Z,74.54
2023-03-11T11:47:06.491Z,75.70
2023-03-11T11:48:19.252Z,73.04
2023-03-11T11:49:24.276Z,72.70
2023-03-11T11:50:33.485Z,71.75
2023-03-11T11:51:41.502Z,69.49
2023-03-11T11:52:47.457Z,65.67
2023-03-11T11:53:59.659Z,63.45
2023-03-11T11:55:05.034Z,62.14
2023-03-11T11:56:07.706Z,61.42
2023-03-11T11:57:12.601Z,63.17
2023-03-11T11:58:15.401Z,64.33
2023-03-11T11:59:21.566Z,65.81
2023-03-11T12:00:30.915Z,66.19
2023-03-11T12:01:43.946Z,67.21
2023-03-11T12:03:03.613Z,68.04
2023-03-11T12:04:22.585Z,67.56
2023-03-11T12:05:30.086Z,67.89
2023-03-11T12:06:40.613Z,67.41
2023-03-11T12:08:00.187Z,68.35
2023-03-11T12:09:16.694Z,68.12
2023-03-11T12:10:27.507Z,69.14
2023-03-11T12:11:34.301Z,69.52
2023-03-11T12:12:45.770Z,69.07
2023-03-11T12:13:55.779Z,68.12
2023-03-11T12:15:08.724Z,70.14
2023-03-11T12:16:21.041Z,69.40
2023-03-11T12:17:26.241Z,70.05
2023-03-11T12:18:32.981Z,69.79
2023-03-11T12:19:42.787Z,69.66
2023-03-11T12:20:50.157Z,69.30
2023-03-11T12:22:24.558Z,67.41
2023-03-11T12:23:42.417Z,65.07
2023-03-11T12:25:09.578Z,63.79
2023-03-11T12:26:18.478Z,65.00
2023-03-11T12:27:25.374Z,65.14
2023-03-11T12:28:38.899Z,63.91
2023-03-11T12:29:43.632Z,61.86
2023-03-11T12:30:50.426Z,63.45
2023-03-11T12:31:53.965Z,61.54
2023-03-11T12:33:00.092Z,63.40
2023-03-11T12:34:05.241Z,63.26
2023-03-11T12:35:10.835Z,63.11
2023-03-11T12:36:24.832Z,65.07
2023-03-11T12:37:26.569Z,66.22
2023-03-11T12:38:34.158Z,66.30
2023-03-11T12:39:35.848Z,64.96
2023-03-11T12:41:00.270Z,65.27
2023-03-11T12:42:23.160Z,64.87
2023-03-11T12:44:10.440Z,66.65
2023-03-11T12:45:50.209Z,67.62
2023-03-11T12:47:20.597Z,68.46
2023-03-11T12:48:34.781Z,69.40
2023-03-11T12:49:39.435Z,70.45
2023-03-11T12:50:43.898Z,70.10
2023-03-11T12:52:03.048Z,70.29
2023-03-11T12:53:06.447Z,71.46
2023-03-11T12:54:27.895Z,70.96
2023-03-11T12:55:34.184Z,70.69
2023-03-11T12:56:41.925Z,70.80
2023-03-11T12:57:55.478Z,69.46
2023-03-11T12:59:22.593Z,70.66
2023-03-11T13:00:48.406Z,71.65
2023-03-11T13:02:14.721Z,71.51
2023-03-11T13:03:34.920Z,70.16
2023-03-11T13:04:46.127Z,71.94
2023-03-11T13:05:57.297Z,70.15
2023-03-11T13:07:32.587Z,71.56
2023-03-11T13:08:44.616Z,68.82
2023-03-11T13:09:47.279Z,70.48
2023-03-11T13:10:50.193Z,69.00
2023-03-11T13:11:54.311Z,70.37
2023-03-11T13:12:56.277Z,70.20
2023-03-11T13:14:12.415Z,69.75
2023-03-11T13:15:32.161Z,69.04
2023-03-11T13:16:40.336Z,68.43
2023-03-11T13:17:42.905Z,67.67
2023-03-11T13:18:47.876Z,69.11
2023-03-11T13:19:53.409Z,67.81
2023-03-11T13:20:57.971Z,68.36
2023-03-11T13:22:02.523Z,68.40
2023-03-11T13:23:30.167Z,66.73
2023-03-11T13:24:50.332Z,66.50
2023-03-11T13:26:32.161Z,66.70
2023-03-11T13:27:43.142Z,67.05
2023-03-11T13:29:00.090Z,66.50
2023-03-11T13:30:12.865Z,66.21
2023-03-11T13:31:33.639Z,66.40
2023-03-11T13:32:51.845Z,67.39
2023-03-11T13:33:57.087Z,66.23
2023-03-11T13:35:11.756Z,65.78
2023-03-11T13:36:26.511Z,64.75
2023-03-11T13:37:42.349Z,65.85
2023-03-11T13:39:01.563Z,66.97
2023-03-11T13:40:15.332Z,65.90
2023-03-11T13:41:22.615Z,67.36
2023-03-11T13:42:32.068Z,65.60
2023-03-11T13:43:36.837Z,66.64
2023-03-11T13:44:42.898Z,67.02
2023-03-11T13:45:52.675Z,66.66
2023-03-11T13:47:00.603Z,68.01
2023-03-11T13:48:08.840Z,63.98
2023-03-11T13:49:27.947Z,60.49
2023-03-11T13:50:36.016Z,59.19
2023-03-11T13:51:44.669Z,57.79